Airfield :
LOGIN :

Register | Disclaimer

   EN    FR    IT 

 










Legend :    VFR   Marginal VFR   IFR   Intensive IFR   Very Intensive IFR
Visi :
Ceiling :
>= 8 km
>= 3000ft
5 to 8 km
1000 to 3000 ft
1500m to 5 km
500 to 1000 ft
800 to 1500m
200 to 500 ft
< 800m
< 200 ft
Symbols :   Thunderstorms  Fog  Heavy snow  Heavy precipitations  Wind > 20 kt
SIGMETs :     Misc.  Thunderstorms  Icing  Turbulence  Mountain Waves  Volcanic Ashes







- Airport Elevation : 266 ft
- IATA code : NCL
- Download approach charts


EGNT - Newcastle

CURRENT METAR :
  • 221420Z 11008KT 050V160 CAVOK 17/08 Q1006

EXPIRED METARs :
  • 221350Z 11009KT 080V160 CAVOK 17/06 Q1006
  • 221320Z 11010KT 070V150 CAVOK 17/06 Q1007
  • 221250Z 11011KT 080V150 CAVOK 17/05 Q1007
  • 221220Z 12011KT 080V150 CAVOK 17/06 Q1008
  • 221150Z 11011KT CAVOK 17/04 Q1008

TAF TAF EGNT
Valid from the 22 at 12:00 until the 23 at 12:00 UTC


221101Z 2212/2312 09008KT CAVOK
BECMG 2221/2224 8000
PROB30
TEMPO 2300/2307 2000 BR BKN003
BECMG 2307/2310 CAVOK
ATIS : +44 191 214 3400
No reported NOTAMs for that airfield.
1 SIGMET reported for the Scottish FIR (EGPX) :
 
Severe mountain waves
EGPX SIGMET 01 VALID 221125/221525 EGRR
EGPX SCOTTISH FIR SEV MTW OBS WI N5634 W00114 - N5617 W00808 - N5823 W00736 - N6100 W00644 - N6100 W00028 - N5634 W00114 FL040/100 STNR NC=



MET'MAP, your aeronautical weather chart ! - Copyright ORBIFLY December 2007 - Disclaimer

ORBIFLY MET'MAP TEAM :

Programming & Development : Alexandra Zaïnal
Concept & Development : Baudouin d'Aumeries
Co-Development & Prog : Marc-Olivier Méhu
Technical & hardware support : Manuel Goepfert

Contact : metmap@orbifly.com




SOURCES & CREDITS :

   NOAA